1894 Cyclonic Storm NOT_NAMED (1894197N20089)


IBTrACS version v04r00. Visit IBTrACS website for data access.
Please direct all questions to the IBTrACS Q and A forum

Storm track - Intensity - Wind Radii - Intensity Data - Source Data - All data

Summary Information

Storm ID 1894197N20089
Start Jul 16 00Z
Landfall Jul 17 06Z
Max Intensity 45 kt (Jul 17 00Z)
End Jul 23 03Z
ATCF IDs
Track status Best track data.

Storm track plot

Map of storm track

Intensity plots

Map of storm track

Radial wind information

No radial wind information for this storm


Position and Intensity Table

BASIN ISO_TIME_________ NATURE LAT LON DS824 WIND
degrees north degrees east kts
NI 1894-07-16 00:00:00 TS 19.80 88.50 30
NI 03:00:00 TS 19.90 88.33 31
NI 06:00:00 TS 20.05 88.09 32
NI 09:00:00 TS 20.20 87.86 33
NI 12:00:00 TS 20.34 87.67 34
NI 15:00:00 TS 20.45 87.54 36
NI 18:00:00 TS 20.55 87.47 39
NI 21:00:00 TS 20.64 87.45 42
NI 1894-07-17 00:00:00 TS 20.74 87.37 45
NI 03:00:00 TS 20.90 87.13 45
NI 06:00:00 TS 21.09 86.75 45
NI 09:00:00 TS 21.27 86.35 45
NI 12:00:00 TS 21.42 85.93 45
NI 15:00:00 TS 21.53 85.50 41
NI 18:00:00 TS 21.59 85.09 37
NI 21:00:00 TS 21.65 84.66 33
NI 1894-07-18 00:00:00 TS 21.69 84.21 30
NI 03:00:00 TS 21.70 83.77 30
NI 06:00:00 TS 21.71 83.34 30
NI 09:00:00 TS 21.75 82.94 30
NI 12:00:00 TS 21.79 82.52 30
NI 15:00:00 TS 21.82 82.06 30
NI 18:00:00 TS 21.87 81.54 30
NI 21:00:00 TS 21.93 80.99 30
NI 1894-07-19 00:00:00 TS 21.98 80.51 30
NI 03:00:00 TS 22.00 80.18 30
NI 06:00:00 TS 22.02 79.97 30
NI 09:00:00 TS 22.05 79.78 30
NI 12:00:00 TS 22.09 79.59 30
NI 15:00:00 TS 22.13 79.36 30
NI 18:00:00 TS 22.16 79.06 30
NI 21:00:00 TS 22.17 78.74 30
NI 1894-07-20 00:00:00 TS 22.18 78.39 30
NI 03:00:00 TS 22.22 77.98 30
NI 06:00:00 TS 22.28 77.54 30
NI 09:00:00 TS 22.36 77.11 30
NI 12:00:00 TS 22.46 76.70 30
NI 15:00:00 TS 22.55 76.34 30
NI 18:00:00 TS 22.64 76.03 30
NI 21:00:00 TS 22.74 75.73 30
NI 1894-07-21 00:00:00 TS 22.84 75.44 30
NI 03:00:00 TS 22.97 75.15 30
NI 06:00:00 TS 23.11 74.85 30
NI 09:00:00 TS 23.23 74.54 30
NI 12:00:00 TS 23.34 74.25 30
NI 15:00:00 TS 23.45 73.97 30
NI 18:00:00 TS 23.55 73.72 30
NI 21:00:00 TS 23.65 73.44 30
NI 1894-07-22 00:00:00 TS 23.75 73.15 30
NI 03:00:00 TS 23.87 72.83 30
NI 06:00:00 TS 24.01 72.47 30
NI 09:00:00 TS 24.13 72.08 30
NI 12:00:00 TS 24.24 71.69 30
NI 15:00:00 TS 24.35 71.35 30
NI 18:00:00 TS 24.44 71.04 30
NI 21:00:00 TS 24.51 70.72 30
NI 1894-07-23 00:00:00 TS 24.56 70.40 30
NI 03:00:00 NR 24.60 70.20

Source Information

Agency Information
USA
TOKYO
CMA
HKO
NEWDELHI
REUNION
BOM
NADI
WELLINGTON
DS824 n_ind.dat:199:NOT NAMED
TD9636 cons_worldwide_trop_cyclone_18710101-19891231-004:Line=2021
TD9635
NEUMANN
MLC

All available IBTrACS Data

SEASON BASIN SUBBASIN ISO_TIME_________ NATURE LAT LON DIST2LAND LANDFALL IFLAG USA SSHS DS824 LAT DS824 LON DS824 STAGE DS824 WIND TD9636 LAT TD9636 LON TD9636 STAGE STORM SPEED STORM DIR
Year degrees north degrees east km km 1 degrees north degrees east kts degrees north degrees east kts degrees
1894 NI BB 1894-07-16 00:00:00 TS 19.80 88.50 186 162 _________O____ -1 19.80 88.50 TC 30 4 302
1894 NI BB 03:00:00 TS 19.90 88.33 162 138 _________PO___ -1 19.95 88.25 TC 31 19.80 88.50 1 5 303
1894 NI BB 06:00:00 TS 20.05 88.09 138 109 _________OP___ -1 20.10 88.00 TC 32 19.97 88.22 1 5 304
1894 NI BB 09:00:00 TS 20.20 87.86 109 85 _________PP___ -1 20.26 87.78 TC 33 20.13 87.96 1 5 307
1894 NI BB 12:00:00 TS 20.34 87.67 85 61 _________OP___ -1 20.40 87.60 TC 34 20.27 87.74 1 4 310
1894 NI BB 15:00:00 TS 20.45 87.54 56 56 _________PO___ -1 20.51 87.48 TC 36 20.40 87.60 2 3 318
1894 NI BB 18:00:00 TS 20.55 87.47 53 53 _________OP___ -1 20.60 87.40 TC 39 20.50 87.53 2 2 334
1894 NI BB 21:00:00 TS 20.64 87.45 43 41 _________PP___ -1 20.68 87.39 TC 42 20.59 87.50 2 2 334
1894 NI BB 1894-07-17 00:00:00 TS 20.74 87.37 41 15 _________OP___ -1 20.80 87.30 TC 45 20.69 87.44 2 4 310
1894 NI BB 03:00:00 TS 20.90 87.13 15 0 _________PO___ -1 20.99 86.95 TC 45 20.80 87.30 3 7 301
1894 NI BB 06:00:00 TS 21.09 86.75 0 0 _________OP___ -1 21.20 86.50 TC 45 20.97 87.00 3 8 297
1894 NI BB 09:00:00 TS 21.27 86.35 0 0 _________PP___ -1 21.37 86.10 TC 45 21.17 86.61 3 8 294
1894 NI BB 12:00:00 TS 21.42 85.93 0 0 _________OP___ -1 21.50 85.70 TC 45 21.35 86.16 3 8 288
1894 NI BB 15:00:00 TS 21.53 85.50 0 0 _________PO___ -1 21.56 85.31 TC 41 21.50 85.70 3 8 282
1894 NI BB 18:00:00 TS 21.59 85.09 0 0 _________OP___ -1 21.60 84.90 TC 37 21.59 85.28 3 8 279
1894 NI BB 21:00:00 TS 21.65 84.66 0 0 _________PP___ -1 21.66 84.46 TC 33 21.64 84.86 3 8 277
1894 NI BB 1894-07-18 00:00:00 TS 21.69 84.21 0 0 _________OP___ -1 21.70 84.00 TC 30 21.68 84.43 3 8 273
1894 NI BB 03:00:00 TS 21.70 83.77 0 0 _________PO___ -1 21.70 83.54 TC 30 21.70 84.00 1 8 272
1894 NI BB 06:00:00 TS 21.71 83.34 0 0 _________OP___ -1 21.70 83.10 TC 30 21.73 83.59 1 8 273
1894 NI BB 09:00:00 TS 21.75 82.94 0 0 _________PP___ -1 21.74 82.71 TC 30 21.75 83.17 1 8 275
1894 NI BB 12:00:00 TS 21.79 82.52 0 0 _________OP___ -1 21.80 82.30 TC 30 21.77 82.75 1 8 276
1894 NI BB 15:00:00 TS 21.82 82.06 0 0 _________PO___ -1 21.85 81.81 TC 30 21.80 82.30 1 9 275
1894 NI BB 18:00:00 TS 21.87 81.54 0 0 _________OP___ -1 21.90 81.30 TC 30 21.85 81.77 1 10 276
1894 NI BB 21:00:00 TS 21.93 80.99 0 0 _________PP___ -1 21.96 80.76 TC 30 21.90 81.23 1 10 276
1894 NI BB 1894-07-19 00:00:00 TS 21.98 80.51 0 0 _________OP___ -1 22.00 80.30 TC 30 21.95 80.73 1 8 275
1894 NI BB 03:00:00 TS 22.00 80.18 0 0 _________PO___ -1 22.00 80.05 TC 30 22.00 80.30 1 5 274
1894 NI BB 06:00:00 TS 22.02 79.97 0 0 _________OP___ -1 22.00 79.90 TC 30 22.03 80.03 1 4 278
1894 NI BB 09:00:00 TS 22.05 79.78 0 0 _________PP___ -1 22.04 79.71 TC 30 22.06 79.85 1 4 282
1894 NI BB 12:00:00 TS 22.09 79.59 0 0 _________OP___ -1 22.10 79.50 TC 30 22.08 79.69 1 4 282
1894 NI BB 15:00:00 TS 22.13 79.36 0 0 _________PO___ -1 22.16 79.22 TC 30 22.10 79.50 1 5 278
1894 NI BB 18:00:00 TS 22.16 79.06 0 0 _________OP___ -1 22.20 78.90 TC 30 22.12 79.23 1 6 274
1894 NI BB 21:00:00 TS 22.17 78.74 0 0 _________PP___ -1 22.20 78.57 TC 30 22.13 78.92 1 6 272
1894 NI BB 1894-07-20 00:00:00 TS 22.18 78.39 0 0 _________OP___ -1 22.20 78.20 TC 30 22.16 78.57 1 7 274
1894 NI AS 03:00:00 TS 22.22 77.98 0 0 _________PO___ -1 22.24 77.76 TC 30 22.20 78.20 1 8 277
1894 NI AS 06:00:00 TS 22.28 77.54 0 0 _________OP___ -1 22.30 77.30 TC 30 22.26 77.78 1 8 280
1894 NI AS 09:00:00 TS 22.36 77.11 0 0 _________PP___ -1 22.39 76.88 TC 30 22.33 77.34 1 8 283
1894 NI AS 12:00:00 TS 22.46 76.70 0 0 _________OP___ -1 22.50 76.50 TC 30 22.41 76.91 1 7 285
1894 NI AS 15:00:00 TS 22.55 76.34 0 0 _________PO___ -1 22.60 76.18 TC 30 22.50 76.50 1 6 287
1894 NI AS 18:00:00 TS 22.64 76.03 0 0 _________OP___ -1 22.70 75.90 TC 30 22.59 76.16 1 6 288
1894 NI AS 21:00:00 TS 22.74 75.73 0 0 _________PP___ -1 22.79 75.60 TC 30 22.68 75.86 1 6 290
1894 NI AS 1894-07-21 00:00:00 TS 22.84 75.44 0 0 _________OP___ -1 22.90 75.30 TC 30 22.79 75.58 1 6 294
1894 NI AS 03:00:00 TS 22.97 75.15 0 0 _________PO___ -1 23.05 75.00 TC 30 22.90 75.30 1 6 296
1894 NI AS 06:00:00 TS 23.11 74.85 0 0 _________OP___ -1 23.20 74.70 TC 30 23.02 75.00 1 6 294
1894 NI AS 09:00:00 TS 23.23 74.54 0 0 _________PP___ -1 23.31 74.39 TC 30 23.15 74.69 1 6 292
1894 NI AS 12:00:00 TS 23.34 74.25 0 0 _________OP___ -1 23.40 74.10 TC 30 23.28 74.39 1 6 293
1894 NI AS 15:00:00 TS 23.45 73.97 0 0 _________PO___ -1 23.50 73.85 TC 30 23.40 74.10 1 5 294
1894 NI AS 18:00:00 TS 23.55 73.72 0 0 _________OP___ -1 23.60 73.60 TC 30 23.50 73.83 1 5 292
1894 NI AS 21:00:00 TS 23.65 73.44 0 0 _________PP___ -1 23.69 73.31 TC 30 23.60 73.57 1 6 291
1894 NI AS 1894-07-22 00:00:00 TS 23.75 73.15 0 0 _________OP___ -1 23.80 73.00 TC 30 23.70 73.30 1 6 292
1894 NI AS 03:00:00 TS 23.87 72.83 0 0 _________PO___ -1 23.95 72.67 TC 30 23.80 73.00 1 7 293
1894 NI AS 06:00:00 TS 24.01 72.47 0 0 _________OP___ -1 24.10 72.30 TC 30 23.93 72.65 1 7 291
1894 NI AS 09:00:00 TS 24.13 72.08 0 0 _________PP___ -1 24.21 71.89 TC 30 24.06 72.27 1 8 288
1894 NI AS 12:00:00 TS 24.24 71.69 0 0 _________OP___ -1 24.30 71.50 TC 30 24.19 71.88 1 7 288
1894 NI AS 15:00:00 TS 24.35 71.35 0 0 _________PO___ -1 24.41 71.19 TC 30 24.30 71.50 1 6 288
1894 NI AS 18:00:00 TS 24.44 71.04 0 0 _________OP___ -1 24.50 70.90 TC 30 24.39 71.15 1 6 285
1894 NI AS 21:00:00 TS 24.51 70.72 0 0 _________PP___ -1 24.56 70.57 TC 30 24.47 70.82 1 6 282
1894 NI AS 1894-07-23 00:00:00 TS 24.56 70.40 0 0 _________OP___ -1 24.60 70.20 TC 30 24.54 70.51 1 5 281
1894 NI AS 03:00:00 NR 24.60 70.20 0 __________O___ -1 TC 24.60 70.20 1 4 282